Time;durP1;ratioP1;P1;durP2;ratioP2;P2;SDS_P1;SDS_P2;PMS_P1;PMS_P2;Temp;Humidity;BMP_temperature;BMP_pressure;BME280_temperature;BME280_humidity;BME280_pressure;Samples;Min_cycle;Max_cycle;Signal;HPM_P1;HPM_P2
2022/03/06 00:01:03;;;;;;;77.07;32.77;;;;;;;2.67;100.00;98912.75;5059161;28;20414;-92
2022/03/06 00:03:29;;;;;;;69.83;29.30;;;;;;;2.71;100.00;98875.56;5042436;28;20631;-91
2022/03/06 00:05:55;;;;;;;67.43;27.70;;;;;;;1.30;100.00;98644.78;5041877;28;20400;-93
2022/03/06 00:08:20;;;;;;;64.13;28.97;;;;;;;3.35;100.00;99019.78;5060074;28;20604;-92
2022/03/06 00:10:47;;;;;;;69.27;29.70;;;;;;;1.14;100.00;98638.78;5054359;28;20173;-91
2022/03/06 00:13:14;;;;;;;75.77;32.33;;;;;;;2.45;100.00;98872.97;5053408;28;20608;-89
2022/03/06 00:15:43;;;;;;;70.53;31.10;;;;;;;1.01;100.00;98647.81;5044012;28;20426;-91
2022/03/06 00:18:08;;;;;;;69.87;30.60;;;;;;;2.18;100.00;98817.09;5043792;28;20477;-91
2022/03/06 00:20:34;;;;;;;70.17;29.87;;;;;;;1.78;100.00;98703.81;5042161;28;20431;-91
2022/03/06 00:23:00;;;;;;;67.67;28.87;;;;;;;3.48;100.00;99044.81;5041830;28;20201;-91
2022/03/06 00:25:25;;;;;;;68.67;29.43;;;;;;;1.37;100.00;98635.34;5044563;28;20192;-91
2022/03/06 00:27:51;;;;;;;69.43;29.23;;;;;;;1.03;100.00;98562.44;5045895;28;20170;-91
2022/03/06 00:30:17;;;;;;;60.13;26.30;;;;;;;1.54;100.00;98702.16;5046144;28;20169;-92
2022/03/06 00:32:42;;;;;;;65.10;28.93;;;;;;;4.94;100.00;99305.66;5045904;28;20181;-91
2022/03/06 00:35:09;;;;;;;70.13;30.40;;;;;;;4.50;100.00;99210.06;5047828;28;20170;-91
2022/03/06 00:37:34;;;;;;;62.37;26.60;;;;;;;3.54;100.00;99053.56;5050844;28;20233;-91
2022/03/06 00:40:01;;;;;;;70.47;29.73;;;;;;;1.34;100.00;98660.06;5066077;28;20467;-91
2022/03/06 00:42:26;;;;;;;63.90;27.63;;;;;;;2.36;100.00;98884.88;5050925;28;20194;-92
2022/03/06 00:44:53;;;;;;;72.67;29.27;;;;;;;4.97;100.00;99284.13;5050925;28;20475;-91
2022/03/06 00:47:19;;;;;;;64.93;27.07;;;;;;;3.77;100.00;99107.63;5067962;28;20180;-91
2022/03/06 00:49:44;;;;;;;69.13;28.87;;;;;;;3.45;100.00;99064.63;5050285;28;20404;-90
2022/03/06 00:52:10;;;;;;;65.33;28.30;;;;;;;1.37;100.00;98694.31;5049445;28;20173;-92
2022/03/06 00:54:35;;;;;;;71.37;29.13;;;;;;;0.35;100.00;98505.50;5066944;28;20201;-91
2022/03/06 00:57:01;;;;;;;66.67;29.13;;;;;;;3.37;100.00;99028.25;5049974;28;20162;-91
2022/03/06 00:59:33;;;;;;;68.53;29.30;;;;;;;0.94;100.00;98603.31;5049799;28;20165;-91
2022/03/06 01:02:00;;;;;;;60.73;27.33;;;;;;;0.95;100.00;98608.41;5050357;28;20165;-91
2022/03/06 01:04:26;;;;;;;66.37;30.10;;;;;;;1.17;100.00;98650.59;5067951;28;20476;-91
2022/03/06 01:06:51;;;;;;;65.53;27.10;;;;;;;0.49;100.00;98542.16;5068083;28;20404;-92
2022/03/06 01:09:17;;;;;;;69.60;28.33;;;;;;;2.39;100.00;98850.97;5052009;28;20169;-92
2022/03/06 01:11:43;;;;;;;62.77;26.00;;;;;;;3.25;100.00;99014.94;5054656;28;20176;-91
2022/03/06 01:14:09;;;;;;;63.33;28.70;;;;;;;0.88;100.00;98635.31;5060089;28;20196;-92
2022/03/06 01:16:34;;;;;;;62.00;26.90;;;;;;;0.53;100.00;98553.19;5062262;28;20309;-92
2022/03/06 01:19:00;;;;;;;68.40;29.07;;;;;;;0.66;100.00;98577.31;5055011;28;20181;-92
2022/03/06 01:21:26;;;;;;;58.07;25.47;;;;;;;4.54;100.00;99293.06;5066991;28;20165;-92
2022/03/06 01:23:54;;;;;;;62.27;28.13;;;;;;;0.43;100.00;98575.72;5064706;28;20630;-93
2022/03/06 01:26:22;;;;;;;60.40;26.23;;;;;;;0.58;100.00;98580.13;5047365;28;20170;-92
2022/03/06 01:28:48;;;;;;;64.17;28.10;;;;;;;0.41;100.00;98528.31;5048502;28;20399;-91
2022/03/06 01:31:14;;;;;;;61.33;25.73;;;;;;;0.69;100.00;98619.84;5049100;28;20419;-92
2022/03/06 01:33:40;;;;;;;65.40;26.77;;;;;;;0.61;100.00;98604.38;5047146;28;20208;-93
2022/03/06 01:36:35;;;;;;;59.10;27.40;;;;;;;0.49;100.00;98598.56;5044468;28;20174;-93
2022/03/06 01:39:01;;;;;;;65.97;26.90;;;;;;;4.54;100.00;99270.50;5047314;28;20224;-91
2022/03/06 01:41:26;;;;;;;58.40;26.80;;;;;;;0.72;100.00;98610.94;5045005;28;20438;-91
2022/03/06 01:43:52;;;;;;;65.60;28.40;;;;;;;2.81;100.00;98987.88;5047744;28;20169;-91
2022/03/06 01:46:18;;;;;;;59.30;24.70;;;;;;;2.24;100.00;98879.06;5067721;28;20173;-92
2022/03/06 01:48:44;;;;;;;58.77;25.03;;;;;;;3.33;100.00;99092.22;5044061;28;20199;-92
2022/03/06 01:51:09;;;;;;;61.67;26.80;;;;;;;0.48;100.00;98562.84;5044956;28;20643;-91
2022/03/06 01:53:37;;;;;;;65.30;27.93;;;;;;;1.03;100.00;98666.22;5060589;28;20233;-92
2022/03/06 01:56:03;;;;;;;56.77;26.13;;;;;;;1.98;100.00;98849.84;5042756;28;20169;-91
2022/03/06 01:58:29;;;;;;;61.80;26.60;;;;;;;0.29;100.00;98574.78;5043146;28;20415;-92
2022/03/06 02:00:55;;;;;;;66.17;28.40;;;;;;;4.34;100.00;99244.94;5043780;28;20245;-92
2022/03/06 02:03:20;;;;;;;60.83;26.67;;;;;;;-0.11;100.00;98480.72;5042974;28;20176;-94
2022/03/06 02:05:46;;;;;;;62.07;27.60;;;;;;;1.32;100.00;98755.47;5043894;28;20620;-92
2022/03/06 02:08:12;;;;;;;64.43;27.50;;;;;;;2.23;100.00;98892.28;5042965;28;20268;-92
2022/03/06 02:10:38;;;;;;;57.90;26.53;;;;;;;0.57;100.00;98632.31;5041690;28;20165;-93
2022/03/06 02:13:04;;;;;;;56.43;25.27;;;;;;;1.78;100.00;98828.53;5042005;28;20197;-93
2022/03/06 02:15:30;;;;;;;59.23;25.80;;;;;;;2.81;100.00;99007.84;5038518;28;20412;-93
2022/03/06 02:17:56;;;;;;;60.77;26.70;;;;;;;-0.06;100.00;98519.19;5038667;28;20436;-93
2022/03/06 02:20:24;;;;;;;54.40;24.33;;;;;;;0.47;100.00;98598.44;5056904;28;20495;-93
2022/03/06 02:22:56;;;;;;;57.20;25.47;;;;;;;3.54;100.00;99153.66;5039397;28;20899;-93
2022/03/06 02:25:27;;;;;;;62.97;26.40;;;;;;;1.76;100.00;98822.56;5039459;28;20414;-93
2022/03/06 02:27:55;;;;;;;52.00;23.67;;;;;;;2.49;100.00;98957.38;5055528;28;20412;-92
2022/03/06 02:30:24;;;;;;;54.53;23.57;;;;;;;2.04;100.00;98887.69;5057304;28;20424;-92
2022/03/06 02:32:51;;;;;;;54.97;24.40;;;;;;;2.35;100.00;98963.06;5056602;28;20455;-92
2022/03/06 02:35:17;;;;;;;52.80;22.67;;;;;;;4.12;100.00;99283.59;5038316;28;20432;-92
2022/03/06 02:37:44;;;;;;;51.07;22.27;;;;;;;0.73;100.00;98666.59;5039955;28;20404;-93
2022/03/06 02:40:12;;;;;;;59.20;26.03;;;;;;;-0.16;100.00;98559.94;5056630;28;20460;-92
2022/03/06 02:42:41;;;;;;;47.63;21.20;;;;;;;2.40;100.00;99011.69;5065302;28;20443;-92
2022/03/06 02:45:22;;;;;;;49.30;24.13;;;;;;;3.78;100.00;99239.56;5040008;28;20494;-92
2022/03/06 02:47:48;;;;;;;50.07;22.17;;;;;;;1.63;100.00;98911.41;5057445;28;20412;-93
2022/03/06 02:50:17;;;;;;;56.37;23.73;;;;;;;1.54;100.00;98843.47;5041539;28;20434;-92
2022/03/06 02:52:43;;;;;;;57.17;23.93;;;;;;;1.41;100.00;98831.75;5015393;28;20402;-92
2022/03/06 02:55:09;;;;;;;46.90;19.43;;;;;;;-0.16;100.00;98587.31;5015910;28;20933;-91
2022/03/06 02:57:35;;;;;;;60.00;23.30;;;;;;;-0.22;100.00;98609.25;5016863;28;20166;-93
2022/03/06 03:00:04;;;;;;;44.50;20.03;;;;;;;1.29;100.00;98842.50;5014317;28;20859;-92
2022/03/06 03:02:29;;;;;;;56.37;24.17;;;;;;;1.52;100.00;98895.69;5016072;28;20413;-92
2022/03/06 03:04:55;;;;;;;52.43;24.13;;;;;;;3.68;100.00;99294.75;5014718;28;20790;-93
2022/03/06 03:07:20;;;;;;;46.53;19.87;;;;;;;0.99;100.00;98832.09;5014267;28;20171;-92
2022/03/06 03:09:46;;;;;;;45.37;20.27;;;;;;;-0.69;100.00;98561.06;5017034;28;20167;-92
2022/03/06 03:12:12;;;;;;;41.93;19.23;;;;;;;0.53;100.00;98789.69;5033088;28;20652;-94
2022/03/06 03:14:38;;;;;;;53.07;23.53;;;;;;;1.01;100.00;98887.91;5041844;28;20230;-92
2022/03/06 03:17:05;;;;;;;50.60;22.30;;;;;;;3.37;100.00;99288.41;5028464;28;20418;-92
2022/03/06 03:19:31;;;;;;;46.70;20.50;;;;;;;0.79;100.00;98836.41;5021551;28;20183;-92
2022/03/06 03:21:56;;;;;;;50.87;21.37;;;;;;;-1.22;100.00;98504.09;5017521;28;20444;-92
2022/03/06 03:24:23;;;;;;;47.27;21.23;;;;;;;1.08;100.00;98900.03;5015260;28;20898;-92
2022/03/06 03:26:49;;;;;;;51.27;20.57;;;;;;;-1.24;100.00;98496.53;5035615;28;20293;-92
2022/03/06 03:29:15;;;;;;;47.60;20.23;;;;;;;-0.99;100.00;98583.63;5032696;28;20450;-92
2022/03/06 03:31:40;;;;;;;52.53;21.40;;;;;;;-0.41;100.00;98673.31;5031930;28;20495;-93
2022/03/06 03:34:06;;;;;;;48.37;20.93;;;;;;;-1.36;100.00;98504.69;5020282;28;20193;-93
2022/03/06 03:36:32;;;;;;;51.90;20.07;;;;;;;-0.71;100.00;98613.88;5020280;28;20173;-92
2022/03/06 03:38:58;;;;;;;49.87;22.10;;;;;;;-1.19;100.00;98556.47;5019303;28;20254;-91
2022/03/06 03:41:24;;;;;;;49.03;20.37;;;;;;;-0.79;100.00;98612.44;5019013;28;20167;-92
2022/03/06 03:43:53;;;;;;;50.23;21.40;;;;;;;1.60;100.00;98994.38;5032014;28;20453;-92
2022/03/06 03:46:19;;;;;;;48.73;20.73;;;;;;;-0.54;100.00;98602.69;5016594;28;20442;-92
2022/03/06 03:48:45;;;;;;;56.70;22.10;;;;;;;0.77;100.00;98877.78;5049393;28;20422;-93
2022/03/06 03:51:11;;;;;;;46.77;20.43;;;;;;;1.04;100.00;98927.13;5034639;28;20175;-94
2022/03/06 03:53:39;;;;;;;52.13;21.53;;;;;;;2.73;100.00;99208.91;5019598;28;20504;-93
2022/03/06 03:56:05;;;;;;;51.43;21.90;;;;;;;-0.75;100.00;98615.28;5016914;28;20414;-93
2022/03/06 03:58:32;;;;;;;50.90;22.00;;;;;;;0.74;100.00;98883.41;5017073;28;20421;-93
2022/03/06 04:00:58;;;;;;;45.83;20.40;;;;;;;-1.03;100.00;98618.94;5019397;28;20407;-93
2022/03/06 04:03:24;;;;;;;54.07;22.30;;;;;;;1.70;100.00;99081.59;5019253;28;20417;-93
2022/03/06 04:05:50;;;;;;;49.43;19.47;;;;;;;-1.07;100.00;98589.66;5003872;28;20166;-92
2022/03/06 04:08:19;;;;;;;52.03;21.17;;;;;;;-0.83;100.00;98670.13;5000354;28;20491;-93
2022/03/06 04:10:47;;;;;;;51.80;23.13;;;;;;;-1.32;100.00;98581.13;5003501;28;20615;-93
2022/03/06 04:13:13;;;;;;;52.67;22.03;;;;;;;2.54;100.00;99220.84;5037352;28;20464;-93
2022/03/06 04:15:38;;;;;;;58.83;23.57;;;;;;;3.10;100.00;99334.00;5006603;28;20853;-93
2022/03/06 04:18:04;;;;;;;48.30;17.93;;;;;;;0.75;100.00;98924.09;5021040;28;20166;-93
2022/03/06 04:20:30;;;;;;;50.30;20.77;;;;;;;-0.75;100.00;98636.78;5023572;28;20766;-92
2022/03/06 04:22:57;;;;;;;50.80;21.17;;;;;;;-0.57;100.00;98674.53;5023765;28;20668;-93
2022/03/06 04:25:23;;;;;;;54.83;23.67;;;;;;;1.44;100.00;99040.53;5041918;28;20433;-93
2022/03/06 04:27:52;;;;;;;57.93;22.93;;;;;;;-0.02;100.00;98774.84;5031038;28;20406;-93
2022/03/06 04:30:18;;;;;;;49.80;22.23;;;;;;;1.00;100.00;98953.44;5031162;28;20498;-92
2022/03/06 04:32:46;;;;;;;60.67;25.67;;;;;;;1.13;100.00;98970.13;5028171;28;20424;-92
2022/03/06 04:35:12;;;;;;;59.27;23.90;;;;;;;0.10;100.00;98800.66;5042649;28;20413;-92
2022/03/06 04:37:37;;;;;;;61.73;25.20;;;;;;;-0.24;100.00;98737.56;5044463;28;20418;-94
2022/03/06 04:40:03;;;;;;;65.97;27.10;;;;;;;0.40;100.00;98884.16;5013821;28;20317;-93
2022/03/06 04:42:31;;;;;;;59.40;24.07;;;;;;;1.41;100.00;99048.69;5004939;28;20558;-94
2022/03/06 04:44:57;;;;;;;58.50;23.67;;;;;;;0.60;100.00;98916.41;5003496;28;20410;-93
2022/03/06 04:47:23;;;;;;;60.47;24.10;;;;;;;2.88;100.00;99306.59;5004726;28;20473;-93
2022/03/06 04:49:49;;;;;;;55.67;22.27;;;;;;;-1.26;100.00;98603.91;5002596;28;20187;-92
2022/03/06 04:52:15;;;;;;;60.83;25.13;;;;;;;-1.21;100.00;98602.66;5027428;28;20167;-91
2022/03/06 04:54:40;;;;;;;61.20;23.47;;;;;;;-1.46;100.00;98574.25;5032151;28;20490;-91
2022/03/06 04:57:06;;;;;;;51.43;20.47;;;;;;;0.85;100.00;98972.22;5015834;28;20178;-93
2022/03/06 04:59:31;;;;;;;61.93;24.63;;;;;;;0.41;100.00;98879.28;5026061;28;20175;-93
2022/03/06 05:01:57;;;;;;;58.37;24.93;;;;;;;1.47;100.00;99073.19;5004491;28;20612;-93
2022/03/06 05:04:23;;;;;;;61.57;23.83;;;;;;;-1.86;100.00;98476.06;5020073;28;20167;-92
2022/03/06 05:06:48;;;;;;;63.50;24.97;;;;;;;1.06;100.00;98990.38;5019632;28;20563;-94
2022/03/06 05:09:14;;;;;;;65.03;25.00;;;;;;;1.37;100.00;99054.22;5006181;28;20186;-91
2022/03/06 05:11:39;;;;;;;62.50;22.60;;;;;;;1.21;100.00;99026.41;5010462;28;20167;-91
2022/03/06 05:14:05;;;;;;;65.13;25.53;;;;;;;0.43;100.00;98887.75;5016303;28;20327;-91
2022/03/06 05:16:31;;;;;;;56.40;21.80;;;;;;;1.48;100.00;99073.31;5015685;28;20191;-94
2022/03/06 05:18:56;;;;;;;62.03;25.63;;;;;;;-0.74;100.00;98666.69;5011474;28;20186;-94
2022/03/06 05:21:22;;;;;;;69.27;24.60;;;;;;;0.81;100.00;98935.41;5014218;28;20171;-93
2022/03/06 05:23:49;;;;;;;63.30;26.20;;;;;;;0.46;100.00;98895.47;4985626;28;20999;-92
2022/03/06 05:26:15;;;;;;;62.30;23.67;;;;;;;1.39;100.00;99074.25;4953591;28;20427;-93
2022/03/06 05:28:41;;;;;;;61.90;25.47;;;;;;;1.18;100.00;98998.78;4969783;28;20466;-93
2022/03/06 05:31:08;;;;;;;64.33;26.93;;;;;;;2.96;100.00;99363.03;4968816;28;20187;-92
2022/03/06 05:33:34;;;;;;;64.50;25.87;;;;;;;2.96;100.00;99336.41;4970193;28;20468;-92
2022/03/06 05:36:00;;;;;;;62.10;25.80;;;;;;;2.96;100.00;99328.91;4966491;28;20956;-94
2022/03/06 05:38:26;;;;;;;67.00;27.13;;;;;;;1.63;100.00;99089.41;4965832;28;20268;-93
2022/03/06 05:40:52;;;;;;;66.73;27.53;;;;;;;0.50;100.00;98924.78;4999634;28;20222;-94
2022/03/06 05:43:20;;;;;;;71.07;28.50;;;;;;;-1.06;100.00;98638.56;5004115;28;20417;-93
2022/03/06 05:45:50;;;;;;;70.20;29.23;;;;;;;-1.53;100.00;98539.78;5005779;28;20578;-94
2022/03/06 05:48:16;;;;;;;63.87;26.07;;;;;;;0.62;100.00;98948.88;5004962;28;20445;-93
2022/03/06 05:50:43;;;;;;;68.70;27.60;;;;;;;-1.86;100.00;98536.47;5021966;28;20421;-93
2022/03/06 05:53:09;;;;;;;66.83;26.17;;;;;;;-1.06;100.00;98615.34;5009022;28;20461;-92
2022/03/06 05:55:37;;;;;;;66.73;27.33;;;;;;;-0.65;100.00;98697.22;5014504;28;20458;-92
2022/03/06 05:58:02;;;;;;;64.87;25.90;;;;;;;-1.44;100.00;98600.03;5031622;28;20397;-92
2022/03/06 06:00:29;;;;;;;73.77;28.60;;;;;;;0.40;100.00;98914.91;5029505;28;20940;-93
2022/03/06 06:02:55;;;;;;;71.57;28.67;;;;;;;3.05;100.00;99332.81;5023181;28;20170;-93
2022/03/06 06:05:22;;;;;;;67.53;26.53;;;;;;;3.11;100.00;99350.72;5024691;28;20445;-92
2022/03/06 06:07:49;;;;;;;60.73;24.53;;;;;;;0.91;100.00;98961.84;5023080;28;20445;-93
2022/03/06 06:10:14;;;;;;;58.60;23.37;;;;;;;1.50;100.00;99074.28;5030331;28;20489;-94
2022/03/06 06:12:40;;;;;;;64.77;26.47;;;;;;;0.82;100.00;98966.16;5035405;28;20429;-93
2022/03/06 06:15:10;;;;;;;68.30;27.43;;;;;;;2.66;100.00;99276.72;5031091;28;20177;-93
2022/03/06 06:17:36;;;;;;;69.07;28.23;;;;;;;0.54;100.00;98939.22;5027664;28;20183;-92
2022/03/06 06:20:26;;;;;;;79.43;31.70;;;;;;;-0.53;100.00;98733.69;5031218;28;20485;-94
2022/03/06 06:22:53;;;;;;;64.03;27.00;;;;;;;-1.41;100.00;98612.69;4972943;28;20431;-94
2022/03/06 06:25:20;;;;;;;71.13;29.37;;;;;;;0.08;100.00;98871.81;4971513;28;20463;-94
2022/03/06 06:27:45;;;;;;;68.93;26.50;;;;;;;-1.38;100.00;98596.44;4969167;28;20419;-92
2022/03/06 06:30:15;;;;;;;71.17;28.97;;;;;;;-0.94;100.00;98659.38;4971150;28;20454;-94
2022/03/06 06:32:40;;;;;;;74.40;29.33;;;;;;;1.14;100.00;98991.81;4951507;28;20191;-91
2022/03/06 06:35:07;;;;;;;71.17;29.23;;;;;;;-1.54;100.00;98605.06;4972424;28;20427;-92
2022/03/06 06:37:33;;;;;;;76.10;29.13;;;;;;;-2.08;100.00;98505.78;4968900;28;20319;-94
2022/03/06 06:39:59;;;;;;;67.80;26.00;;;;;;;-1.10;100.00;98654.00;4966589;28;20487;-94
2022/03/06 06:42:24;;;;;;;65.43;25.80;;;;;;;0.52;100.00;98918.28;4967239;28;20186;-94
2022/03/06 06:44:50;;;;;;;68.93;28.17;;;;;;;-1.26;100.00;98665.97;4969396;28;20184;-93
2022/03/06 06:47:16;;;;;;;69.93;27.17;;;;;;;1.07;100.00;99052.78;4968857;28;20204;-93
2022/03/06 06:49:41;;;;;;;60.10;26.93;;;;;;;-0.85;100.00;98742.03;4968538;28;20168;-93
2022/03/06 06:52:07;;;;;;;73.43;28.63;;;;;;;0.48;100.00;98906.38;4967549;28;20172;-94
2022/03/06 06:54:32;;;;;;;76.53;30.30;;;;;;;0.52;100.00;98947.34;4967310;28;20727;-93
2022/03/06 06:57:18;;;;;;;68.20;26.33;;;;;;;1.47;100.00;99064.09;4967060;28;20180;-93
2022/03/06 06:59:44;;;;;;;73.23;27.60;;;;;;;-1.09;100.00;98657.34;4962732;28;20195;-92
2022/03/06 07:02:09;;;;;;;75.07;29.03;;;;;;;0.23;100.00;98872.97;4983960;28;20423;-93
2022/03/06 07:04:35;;;;;;;64.27;27.30;;;;;;;-1.20;100.00;98657.38;5017623;28;20183;-93
2022/03/06 07:07:00;;;;;;;59.93;23.20;;;;;;;-1.73;100.00;98539.91;5017054;28;20180;-92
2022/03/06 07:09:26;;;;;;;70.83;27.80;;;;;;;0.19;100.00;98890.03;4998807;28;20294;-92
2022/03/06 07:11:51;;;;;;;64.37;25.63;;;;;;;1.34;100.00;99049.00;5017498;28;20214;-92
2022/03/06 07:14:16;;;;;;;62.73;24.40;;;;;;;-1.14;100.00;98666.91;5010770;28;20218;-92
2022/03/06 07:16:45;;;;;;;59.27;23.37;;;;;;;0.95;100.00;98999.56;5030039;28;20201;-93
2022/03/06 07:19:11;;;;;;;66.10;26.33;;;;;;;1.49;100.00;99050.09;4999452;28;20190;-93
2022/03/06 07:21:38;;;;;;;61.00;24.17;;;;;;;1.57;100.00;99090.56;4984854;28;20518;-93
2022/03/06 07:24:07;;;;;;;61.70;25.10;;;;;;;0.88;100.00;98955.00;5022696;28;20429;-92
2022/03/06 07:26:33;;;;;;;54.17;22.43;;;;;;;1.76;100.00;99092.00;5012577;28;20437;-92
2022/03/06 07:28:58;;;;;;;50.97;21.40;;;;;;;0.55;100.00;98916.03;5022898;28;20518;-92
2022/03/06 07:31:24;;;;;;;77.97;32.83;;;;;;;-1.58;100.00;98585.72;5026845;28;20239;-93
2022/03/06 07:33:50;;;;;;;138.77;49.40;;;;;;;0.47;100.00;98921.19;5038094;28;20281;-91
2022/03/06 07:36:16;;;;;;;137.33;49.80;;;;;;;0.63;100.00;98915.75;5018984;28;20433;-91
2022/03/06 07:38:41;;;;;;;98.07;40.10;;;;;;;-1.42;100.00;98621.75;5019319;28;20170;-92
2022/03/06 07:41:07;;;;;;;472.10;145.90;;;;;;;1.62;100.00;99085.16;5019392;28;20221;-92
2022/03/06 07:43:32;;;;;;;580.63;216.43;;;;;;;-1.88;100.00;98527.16;5020240;28;20642;-93
2022/03/06 07:45:58;;;;;;;68.40;27.40;;;;;;;1.36;100.00;99097.34;5040796;28;20174;-94
2022/03/06 07:48:23;;;;;;;74.43;33.03;;;;;;;-1.86;100.00;98526.53;5044154;28;20189;-93
2022/03/06 07:50:50;;;;;;;109.50;47.03;;;;;;;3.01;100.00;99354.22;5045145;28;20170;-93
2022/03/06 07:53:15;;;;;;;55.87;24.73;;;;;;;1.91;100.00;99174.63;5045385;28;20456;-93
2022/03/06 07:55:41;;;;;;;59.57;25.20;;;;;;;1.08;100.00;99014.66;5041504;28;20194;-93
2022/03/06 07:58:06;;;;;;;57.87;25.70;;;;;;;0.98;100.00;98982.38;5025655;28;20197;-94
2022/03/06 08:00:35;;;;;;;49.50;21.77;;;;;;;3.24;100.00;99361.72;5026353;28;20170;-93
2022/03/06 08:03:01;;;;;;;57.23;23.60;;;;;;;-1.17;100.00;98599.66;5041097;28;20205;-93
2022/03/06 08:05:26;;;;;;;56.20;24.30;;;;;;;1.60;100.00;99119.09;5044921;28;20409;-93
2022/03/06 08:07:52;;;;;;;53.63;21.83;;;;;;;0.73;100.00;98968.84;5043537;28;20162;-93
2022/03/06 08:10:18;;;;;;;77.57;32.27;;;;;;;1.64;100.00;99128.56;5040396;28;20253;-92
2022/03/06 08:12:47;;;;;;;812.57;273.13;;;;;;;2.73;100.00;99285.50;5055620;28;20237;-93
2022/03/06 08:15:13;;;;;;;262.70;78.60;;;;;;;-1.12;100.00;98640.59;5038738;28;20417;-90
2022/03/06 08:17:38;;;;;;;105.97;38.37;;;;;;;2.81;100.00;99322.78;5020114;28;20409;-90
2022/03/06 08:20:04;;;;;;;105.70;48.27;;;;;;;-0.21;100.00;98775.09;5038820;28;20630;-89
2022/03/06 08:22:31;;;;;;;44.50;19.63;;;;;;;3.03;100.00;99330.19;5039609;28;20249;-90
2022/03/06 08:24:56;;;;;;;59.27;27.43;;;;;;;-0.71;100.00;98719.09;5039605;28;20491;-91
2022/03/06 08:27:22;;;;;;;58.73;26.43;;;;;;;2.06;100.00;99164.88;5035170;28;20503;-90
2022/03/06 08:29:48;;;;;;;55.00;23.37;;;;;;;-0.23;100.00;98798.13;5035312;28;20190;-90
2022/03/06 08:32:14;;;;;;;72.43;32.63;;;;;;;1.27;100.00;99063.38;5035120;28;20204;-90
2022/03/06 08:34:39;;;;;;;50.83;22.20;;;;;;;2.83;100.00;99291.25;5018461;28;20472;-91
2022/03/06 08:37:05;;;;;;;54.83;22.33;;;;;;;3.07;100.00;99373.78;5035582;28;20166;-90
2022/03/06 08:39:31;;;;;;;51.50;22.10;;;;;;;-0.35;100.00;98787.25;5030398;28;20660;-90
2022/03/06 08:41:56;;;;;;;117.87;47.03;;;;;;;-0.50;100.00;98697.50;5019378;28;20217;-92
2022/03/06 08:44:25;;;;;;;572.37;192.47;;;;;;;2.42;100.00;99192.47;5025273;28;20193;-92
2022/03/06 08:46:51;;;;;;;54.53;24.30;;;;;;;-1.39;100.00;98550.00;5024634;28;20171;-91
2022/03/06 08:49:17;;;;;;;52.33;24.17;;;;;;;-0.86;100.00;98678.22;5026771;28;20464;-91
2022/03/06 08:51:43;;;;;;;57.73;24.60;;;;;;;2.93;100.00;99376.16;5021210;28;20688;-92
2022/03/06 08:54:09;;;;;;;57.47;26.07;;;;;;;-0.89;100.00;98682.06;5008863;28;20883;-92
2022/03/06 08:56:35;;;;;;;55.20;25.57;;;;;;;-1.18;100.00;98664.94;5030588;28;20418;-93
2022/03/06 08:59:01;;;;;;;52.80;22.80;;;;;;;-1.47;100.00;98674.25;5057128;28;20440;-91
2022/03/06 09:01:27;;;;;;;57.00;24.23;;;;;;;1.16;100.00;99070.94;5031853;28;20566;-91
2022/03/06 09:03:52;;;;;;;52.93;24.43;;;;;;;0.41;100.00;98936.53;5018668;28;20179;-92
2022/03/06 09:06:21;;;;;;;50.80;21.07;;;;;;;-0.46;100.00;98746.66;5002673;28;20197;-93
2022/03/06 09:08:47;;;;;;;50.43;20.97;;;;;;;0.48;100.00;98933.78;5005199;28;20178;-91
2022/03/06 09:11:12;;;;;;;53.97;22.97;;;;;;;-0.71;100.00;98767.91;5019458;28;20414;-90
2022/03/06 09:13:38;;;;;;;51.90;22.73;;;;;;;-0.78;100.00;98721.88;5015809;28;20185;-90
2022/03/06 09:16:04;;;;;;;52.63;23.33;;;;;;;3.29;100.00;99370.44;5031301;28;20170;-92
2022/03/06 09:18:30;;;;;;;56.70;23.97;;;;;;;3.05;100.00;99355.31;5023689;28;20167;-90
2022/03/06 09:20:56;;;;;;;67.07;28.07;;;;;;;0.66;100.00;98940.88;5020474;28;20792;-91
2022/03/06 09:23:22;;;;;;;120.47;40.23;;;;;;;-1.38;100.00;98616.28;4999876;28;21035;-90
2022/03/06 09:25:47;;;;;;;218.20;78.53;;;;;;;-0.93;100.00;98712.38;4998734;28;20409;-88
2022/03/06 09:28:13;;;;;;;1285.07;446.13;;;;;;;1.54;100.00;99128.63;5014725;28;20173;-90
2022/03/06 09:30:38;;;;;;;117.97;39.70;;;;;;;-0.47;100.00;98796.28;5014100;28;20573;-89
2022/03/06 09:33:04;;;;;;;121.10;38.73;;;;;;;1.48;100.00;99155.63;4998355;28;20194;-91
2022/03/06 09:35:30;;;;;;;51.60;22.77;;;;;;;0.64;100.00;99019.56;5016702;28;20214;-91
2022/03/06 09:37:55;;;;;;;48.00;20.73;;;;;;;0.76;100.00;99023.00;5000820;28;20175;-88
2022/03/06 09:40:20;;;;;;;48.87;21.27;;;;;;;0.28;100.00;98963.75;5015545;28;20241;-88
2022/03/06 09:42:46;;;;;;;49.77;19.97;;;;;;;0.65;100.00;98979.00;5025414;28;20602;-90
2022/03/06 09:45:14;;;;;;;53.10;24.83;;;;;;;3.07;100.00;99377.16;5026240;28;20169;-90
2022/03/06 09:47:41;;;;;;;55.30;24.63;;;;;;;0.12;100.00;98824.00;5041835;28;20202;-92
2022/03/06 09:50:09;;;;;;;50.50;21.40;;;;;;;0.80;100.00;98975.13;5030879;28;20408;-91
2022/03/06 09:52:34;;;;;;;49.17;21.80;;;;;;;0.79;100.00;98956.84;5024791;28;20430;-91
2022/03/06 09:55:01;;;;;;;49.23;24.60;;;;;;;-1.09;100.00;98704.50;5024496;28;20444;-90
2022/03/06 09:57:26;;;;;;;53.57;23.43;;;;;;;1.16;100.00;99082.53;5028217;28;20265;-90
2022/03/06 09:59:52;;;;;;;49.07;22.57;;;;;;;-1.43;100.00;98648.94;5026139;28;20547;-90
2022/03/06 10:02:19;;;;;;;113.90;44.53;;;;;;;1.59;100.00;99136.47;5024224;28;20610;-90
2022/03/06 10:04:50;;;;;;;45.97;20.93;;;;;;;1.77;100.00;99143.66;5024004;28;20186;-89
2022/03/06 10:07:19;;;;;;;50.33;22.70;;;;;;;1.05;100.00;99026.03;5028019;28;20409;-90
2022/03/06 10:09:47;;;;;;;44.93;21.67;;;;;;;2.90;100.00;99393.44;5010251;28;20429;-91
2022/03/06 10:12:27;;;;;;;41.23;19.33;;;;;;;0.31;100.00;98936.63;5026486;28;20417;-92
2022/03/06 10:14:59;;;;;;;48.60;22.20;;;;;;;-1.68;100.00;98578.31;5025274;28;20452;-91
2022/03/06 10:17:28;;;;;;;48.33;21.70;;;;;;;3.08;100.00;99365.53;5027618;28;20404;-89
2022/03/06 10:19:53;;;;;;;49.70;23.17;;;;;;;3.04;100.00;99361.94;5031695;28;20472;-89
2022/03/06 10:22:21;;;;;;;60.00;27.10;;;;;;;1.84;100.00;99139.13;5057365;28;20990;-89
2022/03/06 10:24:52;;;;;;;56.50;26.47;;;;;;;2.78;100.00;99336.66;5021311;28;20197;-90
2022/03/06 10:27:45;;;;;;;68.33;30.30;;;;;;;-0.21;100.00;98796.63;5056157;28;20439;-90
2022/03/06 10:30:35;;;;;;;58.00;27.37;;;;;;;2.07;100.00;99169.09;5037188;28;20443;-91
2022/03/06 10:33:18;;;;;;;54.37;24.20;;;;;;;2.99;100.00;99354.09;4973200;28;20439;-91
2022/03/06 10:35:46;;;;;;;43.37;20.63;;;;;;;1.27;100.00;99125.69;4974306;28;20547;-91
2022/03/06 10:38:23;;;;;;;46.97;19.87;;;;;;;2.87;100.00;99365.72;4979526;28;20507;-91
2022/03/06 10:40:50;;;;;;;53.87;23.20;;;;;;;1.84;100.00;99184.03;4959419;28;20463;-90
2022/03/06 10:43:23;;;;;;;59.70;27.10;;;;;;;2.33;100.00;99261.78;4959552;28;20451;-91
2022/03/06 10:45:50;;;;;;;38.13;18.07;;;;;;;2.18;100.00;99258.13;4986911;28;20441;-91
2022/03/06 10:48:16;;;;;;;71.20;32.27;;;;;;;0.67;100.00;99024.78;4969309;28;20457;-90
2022/03/06 10:50:43;;;;;;;55.73;25.93;;;;;;;1.41;100.00;99103.53;4971148;28;20945;-91
2022/03/06 10:53:21;;;;;;;61.47;30.93;;;;;;;3.01;100.00;99344.22;4955507;28;20583;-91
2022/03/06 10:55:47;;;;;;;56.50;25.43;;;;;;;-0.93;100.00;98650.28;4956391;28;20435;-90
2022/03/06 10:58:13;;;;;;;50.50;23.57;;;;;;;1.36;100.00;99016.69;4954558;28;20439;-90
2022/03/06 11:00:41;;;;;;;53.87;23.83;;;;;;;-0.67;100.00;98693.75;4972751;28;20451;-91
2022/03/06 11:03:07;;;;;;;53.03;23.27;;;;;;;2.40;100.00;99241.47;4968333;28;21050;-91
2022/03/06 11:05:33;;;;;;;54.17;24.93;;;;;;;1.72;100.00;99105.03;4936495;29;20448;-91
2022/03/06 11:08:01;;;;;;;55.10;25.27;;;;;;;1.33;100.00;99011.47;4972308;28;20462;-90
2022/03/06 11:10:27;;;;;;;54.23;25.53;;;;;;;2.00;100.00;99102.91;5019948;28;20444;-92
2022/03/06 11:12:54;;;;;;;55.23;25.33;;;;;;;2.94;100.00;99275.38;5029443;28;20433;-90